Maple Heights, Ohio
Current Conditions -  °F | °C
As of 4:53 PM on Thursday 27 Nov 2014 (Local Time) from KBKL Reporting Station
Light Snow Light Snow  
Wind Chill: 21°   Ceiling: 3300
Heat Index: 33°   Visibility: 4mi
Dew Point: 27°   Wind: 23mph
Humidity: 78%   Direction: 270°W
Pressure: 30.17"   Gusts: NA
Location:  41.41°N, 81.56°W
Report Text: KBKL 272153Z 27020KT 4SM -SN SCT022 BKN033 OVC050 01/M03 A3017 RMK AO2 PK WND 27027/2105 SNE2059B33 SLP223 P0001 T00061028
Loading
Personal Weather Stations






























Interactive Weather Map New forecast layout! Learn more

10-Day Weather Forecast

Advertisements
Track Severe Weather on mobile